Terminal Aerodrome Forecast
Issued by NWS Northern Indiana

Home | Current Version | Previous Version | Text Only | Print | Product List | Glossary On
Versions: 1 2 3 4 5 6 7 8 9 10 11 12 13
000
FTUS43 KIWX 101120
TAFFWA
TAF
KFWA 101120Z 1012/1112 24008KT P6SM SCT030 BKN100
     FM110000 24004KT P6SM VCSH OVC050
     FM110300 19004KT 3SM -SN OVC025=

USA.gov is the U.S. government's official web portal to all federal, state and local government web resources and services.